sensor_id;sensor_type;location;lat;lon;timestamp;pressure;altitude;pressure_sealevel;temperature;humidity
77590;BME280;66746;51.328;12.332;2023-06-26T00:00:31;100400.84;;;19.53;79.06
77590;BME280;66746;51.328;12.332;2023-06-26T00:02:58;100396.44;;;19.50;78.82
77590;BME280;66746;51.328;12.332;2023-06-26T00:05:24;100392.94;;;19.48;79.57
77590;BME280;66746;51.328;12.332;2023-06-26T00:07:51;100406.59;;;19.50;78.79
77590;BME280;66746;51.328;12.332;2023-06-26T00:10:17;100392.28;;;19.45;78.75
77590;BME280;66746;51.328;12.332;2023-06-26T00:12:44;100404.16;;;19.45;78.57
77590;BME280;66746;51.328;12.332;2023-06-26T00:15:10;100386.38;;;19.38;78.97
77590;BME280;66746;51.328;12.332;2023-06-26T00:17:38;100386.56;;;19.35;79.13
77590;BME280;66746;51.328;12.332;2023-06-26T00:20:05;100394.06;;;19.33;79.06
77590;BME280;66746;51.328;12.332;2023-06-26T00:22:37;100386.97;;;19.29;79.09
77590;BME280;66746;51.328;12.332;2023-06-26T00:25:04;100392.06;;;19.22;78.76
77590;BME280;66746;51.328;12.332;2023-06-26T00:27:30;100389.66;;;19.18;79.13
77590;BME280;66746;51.328;12.332;2023-06-26T00:29:57;100395.47;;;19.13;78.78
77590;BME280;66746;51.328;12.332;2023-06-26T00:32:23;100393.84;;;19.11;78.24
77590;BME280;66746;51.328;12.332;2023-06-26T00:34:51;100399.41;;;19.09;78.76
77590;BME280;66746;51.328;12.332;2023-06-26T00:37:17;100389.75;;;19.04;78.83
77590;BME280;66746;51.328;12.332;2023-06-26T00:39:44;100394.28;;;19.05;79.03
77590;BME280;66746;51.328;12.332;2023-06-26T00:42:10;100384.38;;;19.02;79.17
77590;BME280;66746;51.328;12.332;2023-06-26T00:44:37;100393.59;;;19.01;79.13
77590;BME280;66746;51.328;12.332;2023-06-26T00:47:04;100389.22;;;18.99;78.91
77590;BME280;66746;51.328;12.332;2023-06-26T00:49:30;100389.31;;;18.97;79.45
77590;BME280;66746;51.328;12.332;2023-06-26T00:51:58;100376.69;;;18.95;79.06
77590;BME280;66746;51.328;12.332;2023-06-26T00:54:25;100379.31;;;18.96;79.09
77590;BME280;66746;51.328;12.332;2023-06-26T00:56:52;100373.38;;;18.90;79.96
77590;BME280;66746;51.328;12.332;2023-06-26T00:59:18;100382.63;;;18.89;79.98
77590;BME280;66746;51.328;12.332;2023-06-26T01:01:47;100375.34;;;18.88;80.58
77590;BME280;66746;51.328;12.332;2023-06-26T01:04:13;100364.78;;;18.82;80.58
77590;BME280;66746;51.328;12.332;2023-06-26T01:06:40;100377.31;;;18.86;80.47
77590;BME280;66746;51.328;12.332;2023-06-26T01:09:08;100373.59;;;18.87;80.45
77590;BME280;66746;51.328;12.332;2023-06-26T01:11:34;100364.59;;;18.85;81.20
77590;BME280;66746;51.328;12.332;2023-06-26T01:14:01;100362.81;;;18.84;80.95
77590;BME280;66746;51.328;12.332;2023-06-26T01:16:28;100364.00;;;18.80;81.46
77590;BME280;66746;51.328;12.332;2023-06-26T01:18:55;100361.38;;;18.78;81.99
77590;BME280;66746;51.328;12.332;2023-06-26T01:21:22;100365.00;;;18.79;82.15
77590;BME280;66746;51.328;12.332;2023-06-26T01:24:00;100355.22;;;18.75;82.37
77590;BME280;66746;51.328;12.332;2023-06-26T01:26:30;100364.47;;;18.74;81.45
77590;BME280;66746;51.328;12.332;2023-06-26T01:28:58;100357.22;;;18.73;81.71
77590;BME280;66746;51.328;12.332;2023-06-26T01:31:26;100353.38;;;18.75;81.69
77590;BME280;66746;51.328;12.332;2023-06-26T01:33:53;100351.59;;;18.74;82.01
77590;BME280;66746;51.328;12.332;2023-06-26T01:36:21;100349.84;;;18.73;81.26
77590;BME280;66746;51.328;12.332;2023-06-26T01:38:48;100357.22;;;18.73;81.27
77590;BME280;66746;51.328;12.332;2023-06-26T01:41:15;100342.94;;;18.68;81.62
77590;BME280;66746;51.328;12.332;2023-06-26T01:43:57;100340.19;;;18.68;81.22
77590;BME280;66746;51.328;12.332;2023-06-26T01:46:30;100347.41;;;18.69;80.96
77590;BME280;66746;51.328;12.332;2023-06-26T01:49:04;100335.66;;;18.67;80.86
77590;BME280;66746;51.328;12.332;2023-06-26T01:51:42;100343.91;;;18.67;80.79
77590;BME280;66746;51.328;12.332;2023-06-26T01:54:14;100329.41;;;18.65;80.78
77590;BME280;66746;51.328;12.332;2023-06-26T01:56:45;100324.69;;;18.54;81.21
77590;BME280;66746;51.328;12.332;2023-06-26T01:59:13;100323.91;;;18.52;80.72
77590;BME280;66746;51.328;12.332;2023-06-26T02:01:40;100335.56;;;18.56;80.46
77590;BME280;66746;51.328;12.332;2023-06-26T02:04:07;100319.28;;;18.52;81.50
77590;BME280;66746;51.328;12.332;2023-06-26T02:06:33;100337.31;;;18.57;81.32
77590;BME280;66746;51.328;12.332;2023-06-26T02:09:00;100326.75;;;18.50;81.22
77590;BME280;66746;51.328;12.332;2023-06-26T02:11:27;100330.50;;;18.49;81.34
77590;BME280;66746;51.328;12.332;2023-06-26T02:13:53;100326.19;;;18.45;80.73
77590;BME280;66746;51.328;12.332;2023-06-26T02:16:21;100332.47;;;18.47;80.78
77590;BME280;66746;51.328;12.332;2023-06-26T02:18:48;100324.22;;;18.47;80.69
77590;BME280;66746;51.328;12.332;2023-06-26T02:21:14;100325.19;;;18.46;80.97
77590;BME280;66746;51.328;12.332;2023-06-26T02:23:41;100322.56;;;18.45;80.99
77590;BME280;66746;51.328;12.332;2023-06-26T02:26:07;100314.44;;;18.43;81.27
77590;BME280;66746;51.328;12.332;2023-06-26T02:28:34;100319.94;;;18.43;81.47
77590;BME280;66746;51.328;12.332;2023-06-26T02:31:00;100317.69;;;18.36;81.18
77590;BME280;66746;51.328;12.332;2023-06-26T02:33:28;100317.91;;;18.33;81.25
77590;BME280;66746;51.328;12.332;2023-06-26T02:35:54;100330.53;;;18.35;81.19
77590;BME280;66746;51.328;12.332;2023-06-26T02:38:21;100327.78;;;18.35;81.47
77590;BME280;66746;51.328;12.332;2023-06-26T02:40:48;100320.75;;;18.31;80.98
77590;BME280;66746;51.328;12.332;2023-06-26T02:43:15;100323.50;;;18.31;81.65
77590;BME280;66746;51.328;12.332;2023-06-26T02:45:42;100326.25;;;18.31;81.70
77590;BME280;66746;51.328;12.332;2023-06-26T02:48:08;100324.28;;;18.33;81.81
77590;BME280;66746;51.328;12.332;2023-06-26T02:50:36;100319.00;;;18.30;81.86
77590;BME280;66746;51.328;12.332;2023-06-26T02:53:06;100320.09;;;18.28;82.04
77590;BME280;66746;51.328;12.332;2023-06-26T02:55:34;100319.44;;;18.24;82.14
77590;BME280;66746;51.328;12.332;2023-06-26T02:58:00;100321.41;;;18.22;81.96
77590;BME280;66746;51.328;12.332;2023-06-26T03:00:27;100323.16;;;18.23;82.40
77590;BME280;66746;51.328;12.332;2023-06-26T03:02:53;100315.91;;;18.22;82.42
77590;BME280;66746;51.328;12.332;2023-06-26T03:05:21;100313.25;;;18.21;82.40
77590;BME280;66746;51.328;12.332;2023-06-26T03:07:49;100304.72;;;18.13;82.84
77590;BME280;66746;51.328;12.332;2023-06-26T03:10:16;100311.06;;;18.13;82.90
77590;BME280;66746;51.328;12.332;2023-06-26T03:12:43;100310.28;;;18.11;82.90
77590;BME280;66746;51.328;12.332;2023-06-26T03:15:10;100309.41;;;18.11;83.41
77590;BME280;66746;51.328;12.332;2023-06-26T03:17:38;100309.50;;;18.09;83.35
77590;BME280;66746;51.328;12.332;2023-06-26T03:20:07;100309.50;;;18.09;83.96
77590;BME280;66746;51.328;12.332;2023-06-26T03:22:47;100282.56;;;17.89;83.67
77590;BME280;66746;51.328;12.332;2023-06-26T03:25:17;100321.38;;;18.10;84.01
77590;BME280;66746;51.328;12.332;2023-06-26T03:27:44;100313.25;;;18.08;84.14
77590;BME280;66746;51.328;12.332;2023-06-26T03:30:11;100307.94;;;18.05;84.01
77590;BME280;66746;51.328;12.332;2023-06-26T03:32:40;100299.72;;;18.05;84.04
77590;BME280;66746;51.328;12.332;2023-06-26T03:35:07;100298.19;;;18.01;84.56
77590;BME280;66746;51.328;12.332;2023-06-26T03:37:35;100293.69;;;18.00;84.00
77590;BME280;66746;51.328;12.332;2023-06-26T03:40:01;100295.22;;;18.04;84.36
77590;BME280;66746;51.328;12.332;2023-06-26T03:42:29;100295.88;;;18.08;83.94
77590;BME280;66746;51.328;12.332;2023-06-26T03:44:56;100287.97;;;18.03;83.93
77590;BME280;66746;51.328;12.332;2023-06-26T03:47:22;100292.38;;;18.06;84.30
77590;BME280;66746;51.328;12.332;2023-06-26T03:49:49;100287.78;;;18.06;84.42
77590;BME280;66746;51.328;12.332;2023-06-26T03:52:15;100294.16;;;18.07;84.48
77590;BME280;66746;51.328;12.332;2023-06-26T03:54:42;100282.59;;;18.02;83.99
77590;BME280;66746;51.328;12.332;2023-06-26T03:57:09;100284.03;;;18.07;84.37
77590;BME280;66746;51.328;12.332;2023-06-26T03:59:37;100294.91;;;18.09;83.88
77590;BME280;66746;51.328;12.332;2023-06-26T04:02:04;100282.06;;;18.09;83.56
77590;BME280;66746;51.328;12.332;2023-06-26T04:04:31;100282.06;;;18.09;83.41
77590;BME280;66746;51.328;12.332;2023-06-26T04:06:58;100289.09;;;18.13;83.68
77590;BME280;66746;51.328;12.332;2023-06-26T04:09:24;100289.00;;;18.15;83.69
77590;BME280;66746;51.328;12.332;2023-06-26T04:11:51;100280.44;;;18.19;83.16
77590;BME280;66746;51.328;12.332;2023-06-26T04:14:17;100273.97;;;18.20;82.68
77590;BME280;66746;51.328;12.332;2023-06-26T04:16:45;100283.53;;;18.27;82.92
77590;BME280;66746;51.328;12.332;2023-06-26T04:19:12;100279.69;;;18.30;83.14
77590;BME280;66746;51.328;12.332;2023-06-26T04:21:39;100284.53;;;18.39;82.08
77590;BME280;66746;51.328;12.332;2023-06-26T04:24:06;100280.50;;;18.44;82.09
77590;BME280;66746;51.328;12.332;2023-06-26T04:26:32;100267.75;;;18.43;81.40
77590;BME280;66746;51.328;12.332;2023-06-26T04:28:59;100280.81;;;18.52;81.10
77590;BME280;66746;51.328;12.332;2023-06-26T04:31:25;100262.91;;;18.47;80.85
77590;BME280;66746;51.328;12.332;2023-06-26T04:33:53;100274.00;;;18.58;81.35
77590;BME280;66746;51.328;12.332;2023-06-26T04:36:20;100268.06;;;18.64;81.15
77590;BME280;66746;51.328;12.332;2023-06-26T04:38:47;100276.00;;;18.69;81.13
77590;BME280;66746;51.328;12.332;2023-06-26T04:41:13;100279.31;;;18.74;81.08
77590;BME280;66746;51.328;12.332;2023-06-26T04:43:40;100269.28;;;18.73;80.69
77590;BME280;66746;51.328;12.332;2023-06-26T04:46:06;100275.13;;;18.81;80.71
77590;BME280;66746;51.328;12.332;2023-06-26T04:48:33;100275.56;;;18.87;80.57
77590;BME280;66746;51.328;12.332;2023-06-26T04:51:00;100272.44;;;18.92;79.69
77590;BME280;66746;51.328;12.332;2023-06-26T04:53:27;100268.72;;;18.93;80.56
77590;BME280;66746;51.328;12.332;2023-06-26T04:55:53;100264.00;;;18.95;80.65
77590;BME280;66746;51.328;12.332;2023-06-26T04:58:20;100264.31;;;19.03;79.45
77590;BME280;66746;51.328;12.332;2023-06-26T05:00:47;100256.59;;;19.08;80.37
77590;BME280;66746;51.328;12.332;2023-06-26T05:03:15;100258.78;;;19.15;79.13
77590;BME280;66746;51.328;12.332;2023-06-26T05:05:42;100247.44;;;19.20;78.87
77590;BME280;66746;51.328;12.332;2023-06-26T05:08:18;100256.00;;;19.28;78.40
77590;BME280;66746;51.328;12.332;2023-06-26T05:10:45;100256.34;;;19.36;77.83
77590;BME280;66746;51.328;12.332;2023-06-26T05:13:11;100242.59;;;19.36;77.68
77590;BME280;66746;51.328;12.332;2023-06-26T05:15:38;100243.41;;;19.49;76.79
77590;BME280;66746;51.328;12.332;2023-06-26T05:18:05;100247.69;;;19.53;76.55
77590;BME280;66746;51.328;12.332;2023-06-26T05:20:31;100245.44;;;19.58;76.30
77590;BME280;66746;51.328;12.332;2023-06-26T05:22:58;100230.25;;;19.65;75.28
77590;BME280;66746;51.328;12.332;2023-06-26T05:25:27;100242.75;;;19.93;74.64
77590;BME280;66746;51.328;12.332;2023-06-26T05:27:55;100241.69;;;20.63;71.15
77590;BME280;66746;51.328;12.332;2023-06-26T05:30:22;100230.63;;;21.83;68.19
77590;BME280;66746;51.328;12.332;2023-06-26T05:32:51;100227.97;;;22.55;63.90
77590;BME280;66746;51.328;12.332;2023-06-26T05:35:18;100236.31;;;22.44;63.42
77590;BME280;66746;51.328;12.332;2023-06-26T05:37:48;100233.94;;;22.30;63.91
77590;BME280;66746;51.328;12.332;2023-06-26T05:40:16;100225.78;;;23.39;64.53
77590;BME280;66746;51.328;12.332;2023-06-26T05:42:45;100226.34;;;24.67;58.77
77590;BME280;66746;51.328;12.332;2023-06-26T05:45:12;100230.81;;;24.41;59.66
77590;BME280;66746;51.328;12.332;2023-06-26T05:47:38;100219.59;;;24.98;55.86
77590;BME280;66746;51.328;12.332;2023-06-26T05:50:07;100226.13;;;23.94;56.63
77590;BME280;66746;51.328;12.332;2023-06-26T05:52:34;100228.50;;;24.27;58.26
77590;BME280;66746;51.328;12.332;2023-06-26T05:55:01;100221.34;;;25.54;54.89
77590;BME280;66746;51.328;12.332;2023-06-26T05:57:29;100221.09;;;26.27;52.73
77590;BME280;66746;51.328;12.332;2023-06-26T05:59:59;100228.00;;;25.06;53.18
77590;BME280;66746;51.328;12.332;2023-06-26T06:02:25;100221.88;;;26.37;53.54
77590;BME280;66746;51.328;12.332;2023-06-26T06:04:54;100226.25;;;26.65;51.88
77590;BME280;66746;51.328;12.332;2023-06-26T06:07:21;100221.84;;;25.67;51.49
77590;BME280;66746;51.328;12.332;2023-06-26T06:09:47;100220.75;;;26.30;52.68
77590;BME280;66746;51.328;12.332;2023-06-26T06:12:14;100222.97;;;26.44;54.14
77590;BME280;66746;51.328;12.332;2023-06-26T06:14:40;100221.63;;;25.95;53.81
77590;BME280;66746;51.328;12.332;2023-06-26T06:17:08;100214.47;;;25.75;52.94
77590;BME280;66746;51.328;12.332;2023-06-26T06:19:35;100206.50;;;26.07;54.50
77590;BME280;66746;51.328;12.332;2023-06-26T06:22:01;100210.72;;;25.12;53.40
77590;BME280;66746;51.328;12.332;2023-06-26T06:24:28;100210.94;;;25.01;55.26
77590;BME280;66746;51.328;12.332;2023-06-26T06:26:54;100216.66;;;25.00;56.99
77590;BME280;66746;51.328;12.332;2023-06-26T06:29:21;100216.72;;;25.17;54.37
77590;BME280;66746;51.328;12.332;2023-06-26T06:31:48;100224.28;;;24.88;54.97
77590;BME280;66746;51.328;12.332;2023-06-26T06:34:16;100204.28;;;25.21;58.21
77590;BME280;66746;51.328;12.332;2023-06-26T06:36:42;100216.47;;;24.55;55.64
77590;BME280;66746;51.328;12.332;2023-06-26T06:39:09;100218.53;;;24.53;57.79
77590;BME280;66746;51.328;12.332;2023-06-26T06:41:35;100204.94;;;25.06;56.15
77590;BME280;66746;51.328;12.332;2023-06-26T06:44:05;100204.28;;;25.49;58.00
77590;BME280;66746;51.328;12.332;2023-06-26T06:46:31;100198.59;;;25.68;56.18
77590;BME280;66746;51.328;12.332;2023-06-26T06:48:58;100197.47;;;25.43;54.39
77590;BME280;66746;51.328;12.332;2023-06-26T06:51:26;100203.44;;;25.11;56.21
77590;BME280;66746;51.328;12.332;2023-06-26T06:53:52;100191.72;;;24.90;57.11
77590;BME280;66746;51.328;12.332;2023-06-26T06:56:19;100194.28;;;25.01;58.16
77590;BME280;66746;51.328;12.332;2023-06-26T06:58:45;100200.66;;;24.84;56.93
77590;BME280;66746;51.328;12.332;2023-06-26T07:01:12;100191.41;;;24.93;58.66
77590;BME280;66746;51.328;12.332;2023-06-26T07:03:39;100197.41;;;24.89;56.35
77590;BME280;66746;51.328;12.332;2023-06-26T07:06:06;100189.19;;;24.97;56.68
77590;BME280;66746;51.328;12.332;2023-06-26T07:08:34;100191.66;;;25.27;58.72
77590;BME280;66746;51.328;12.332;2023-06-26T07:11:00;100184.34;;;25.26;54.48
77590;BME280;66746;51.328;12.332;2023-06-26T07:13:27;100185.56;;;25.68;57.00
77590;BME280;66746;51.328;12.332;2023-06-26T07:15:54;100177.78;;;26.24;57.92
77590;BME280;66746;51.328;12.332;2023-06-26T07:18:20;100174.84;;;26.26;56.00
77590;BME280;66746;51.328;12.332;2023-06-26T07:20:47;100182.50;;;26.06;54.94
77590;BME280;66746;51.328;12.332;2023-06-26T07:23:13;100176.38;;;25.85;52.43
77590;BME280;66746;51.328;12.332;2023-06-26T07:25:41;100177.63;;;26.26;56.34
77590;BME280;66746;51.328;12.332;2023-06-26T07:28:09;100183.38;;;26.07;55.55
77590;BME280;66746;51.328;12.332;2023-06-26T07:30:36;100185.44;;;26.48;54.94
77590;BME280;66746;51.328;12.332;2023-06-26T07:33:03;100187.25;;;26.14;53.14
77590;BME280;66746;51.328;12.332;2023-06-26T07:35:30;100186.22;;;25.97;53.39
77590;BME280;66746;51.328;12.332;2023-06-26T07:37:56;100174.63;;;26.19;54.94
77590;BME280;66746;51.328;12.332;2023-06-26T07:40:23;100183.81;;;25.85;53.70
77590;BME280;66746;51.328;12.332;2023-06-26T07:42:50;100173.81;;;25.57;54.00
77590;BME280;66746;51.328;12.332;2023-06-26T07:45:17;100167.47;;;25.64;54.22
77590;BME280;66746;51.328;12.332;2023-06-26T07:47:44;100169.06;;;26.19;56.82
77590;BME280;66746;51.328;12.332;2023-06-26T07:50:10;100167.69;;;26.41;51.89
77590;BME280;66746;51.328;12.332;2023-06-26T07:52:37;100172.59;;;26.47;54.81
77590;BME280;66746;51.328;12.332;2023-06-26T07:55:04;100162.03;;;26.76;52.58
77590;BME280;66746;51.328;12.332;2023-06-26T07:57:31;100162.25;;;26.65;51.30
77590;BME280;66746;51.328;12.332;2023-06-26T07:59:59;100160.34;;;26.91;52.99
77590;BME280;66746;51.328;12.332;2023-06-26T08:02:26;100166.34;;;26.53;53.08
77590;BME280;66746;51.328;12.332;2023-06-26T08:04:52;100165.56;;;26.94;53.89
77590;BME280;66746;51.328;12.332;2023-06-26T08:07:21;100159.09;;;27.20;53.65
77590;BME280;66746;51.328;12.332;2023-06-26T08:09:48;100159.44;;;27.25;52.02
77590;BME280;66746;51.328;12.332;2023-06-26T08:12:14;100154.84;;;27.49;52.25
77590;BME280;66746;51.328;12.332;2023-06-26T08:14:41;100157.84;;;27.64;50.08
77590;BME280;66746;51.328;12.332;2023-06-26T08:17:10;100152.63;;;27.77;49.59
77590;BME280;66746;51.328;12.332;2023-06-26T08:19:36;100152.59;;;27.45;48.87
77590;BME280;66746;51.328;12.332;2023-06-26T08:22:03;100155.81;;;27.90;51.10
77590;BME280;66746;51.328;12.332;2023-06-26T08:24:30;100148.53;;;28.21;51.62
77590;BME280;66746;51.328;12.332;2023-06-26T08:26:56;100140.09;;;28.45;49.42
77590;BME280;66746;51.328;12.332;2023-06-26T08:29:23;100130.72;;;28.54;46.55
77590;BME280;66746;51.328;12.332;2023-06-26T08:31:50;100140.84;;;28.31;48.75
77590;BME280;66746;51.328;12.332;2023-06-26T08:34:17;100147.06;;;28.73;49.19
77590;BME280;66746;51.328;12.332;2023-06-26T08:36:44;100137.50;;;28.52;45.39
77590;BME280;66746;51.328;12.332;2023-06-26T08:39:10;100141.00;;;28.38;46.97
77590;BME280;66746;51.328;12.332;2023-06-26T08:41:37;100141.50;;;28.41;46.35
77590;BME280;66746;51.328;12.332;2023-06-26T08:44:04;100138.38;;;28.52;48.34
77590;BME280;66746;51.328;12.332;2023-06-26T08:46:31;100140.47;;;28.42;47.73
77590;BME280;66746;51.328;12.332;2023-06-26T08:49:01;100136.47;;;28.37;46.60
77590;BME280;66746;51.328;12.332;2023-06-26T08:51:30;100137.38;;;28.29;46.55
77590;BME280;66746;51.328;12.332;2023-06-26T08:54:01;100126.84;;;28.71;47.26
77590;BME280;66746;51.328;12.332;2023-06-26T08:56:31;100126.09;;;28.86;43.85
77590;BME280;66746;51.328;12.332;2023-06-26T08:58:59;100126.59;;;28.89;46.18
77590;BME280;66746;51.328;12.332;2023-06-26T09:01:25;100130.88;;;29.16;44.23
77590;BME280;66746;51.328;12.332;2023-06-26T09:03:52;100117.59;;;29.10;45.81
77590;BME280;66746;51.328;12.332;2023-06-26T09:06:18;100117.66;;;29.02;42.57
77590;BME280;66746;51.328;12.332;2023-06-26T09:08:46;100130.00;;;28.44;42.82
77590;BME280;66746;51.328;12.332;2023-06-26T09:11:13;100124.31;;;28.93;47.34
77590;BME280;66746;51.328;12.332;2023-06-26T09:13:40;100127.00;;;29.25;43.83
77590;BME280;66746;51.328;12.332;2023-06-26T09:16:07;100118.88;;;28.99;42.60
77590;BME280;66746;51.328;12.332;2023-06-26T09:18:34;100133.31;;;28.56;43.65
77590;BME280;66746;51.328;12.332;2023-06-26T09:21:06;100120.53;;;28.77;46.00
77590;BME280;66746;51.328;12.332;2023-06-26T09:23:33;100117.88;;;29.31;46.85
77590;BME280;66746;51.328;12.332;2023-06-26T09:26:03;100111.91;;;29.34;43.89
77590;BME280;66746;51.328;12.332;2023-06-26T09:28:30;100120.03;;;29.51;44.06
77590;BME280;66746;51.328;12.332;2023-06-26T09:31:01;100117.53;;;29.26;41.35
77590;BME280;66746;51.328;12.332;2023-06-26T09:33:27;100108.16;;;29.19;43.51
77590;BME280;66746;51.328;12.332;2023-06-26T09:35:54;100111.72;;;29.66;46.07
77590;BME280;66746;51.328;12.332;2023-06-26T09:38:20;100096.44;;;29.54;43.44
77590;BME280;66746;51.328;12.332;2023-06-26T09:40:47;100101.56;;;29.65;43.24
77590;BME280;66746;51.328;12.332;2023-06-26T09:43:14;100094.75;;;29.90;43.00
77590;BME280;66746;51.328;12.332;2023-06-26T09:45:41;100089.72;;;30.31;42.01
77590;BME280;66746;51.328;12.332;2023-06-26T09:48:08;100097.53;;;30.35;41.22
77590;BME280;66746;51.328;12.332;2023-06-26T09:50:35;100098.69;;;29.81;41.53
77590;BME280;66746;51.328;12.332;2023-06-26T09:53:07;100098.66;;;30.26;40.20
77590;BME280;66746;51.328;12.332;2023-06-26T09:55:34;100088.75;;;30.38;41.30
77590;BME280;66746;51.328;12.332;2023-06-26T09:58:02;100096.69;;;30.12;39.20
77590;BME280;66746;51.328;12.332;2023-06-26T10:00:32;100074.78;;;30.38;39.77
77590;BME280;66746;51.328;12.332;2023-06-26T10:02:59;100089.09;;;30.21;37.51
77590;BME280;66746;51.328;12.332;2023-06-26T10:05:27;100079.00;;;29.97;39.00
77590;BME280;66746;51.328;12.332;2023-06-26T10:07:54;100081.25;;;30.16;39.72
77590;BME280;66746;51.328;12.332;2023-06-26T10:10:22;100076.91;;;30.14;40.80
77590;BME280;66746;51.328;12.332;2023-06-26T10:12:51;100083.50;;;29.98;37.41
77590;BME280;66746;51.328;12.332;2023-06-26T10:15:21;100075.78;;;30.23;39.33
77590;BME280;66746;51.328;12.332;2023-06-26T10:17:51;100078.91;;;30.05;39.24
77590;BME280;66746;51.328;12.332;2023-06-26T10:20:21;100075.44;;;30.55;40.87
77590;BME280;66746;51.328;12.332;2023-06-26T10:22:49;100066.28;;;30.61;40.70
77590;BME280;66746;51.328;12.332;2023-06-26T10:25:18;100060.56;;;30.40;38.43
77590;BME280;66746;51.328;12.332;2023-06-26T10:27:49;100061.59;;;30.24;39.19
77590;BME280;66746;51.328;12.332;2023-06-26T10:30:20;100050.41;;;30.24;36.46
77590;BME280;66746;51.328;12.332;2023-06-26T10:32:50;100039.84;;;30.64;39.84
77590;BME280;66746;51.328;12.332;2023-06-26T10:35:18;100047.44;;;30.99;35.17
77590;BME280;66746;51.328;12.332;2023-06-26T10:37:46;100057.41;;;30.87;37.08
77590;BME280;66746;51.328;12.332;2023-06-26T10:40:14;100049.84;;;30.73;37.92
77590;BME280;66746;51.328;12.332;2023-06-26T10:42:50;100051.81;;;30.87;38.48
77590;BME280;66746;51.328;12.332;2023-06-26T10:45:19;100048.78;;;30.30;35.51
77590;BME280;66746;51.328;12.332;2023-06-26T10:47:47;100050.03;;;30.57;36.83
77590;BME280;66746;51.328;12.332;2023-06-26T10:50:19;100058.84;;;30.68;37.31
77590;BME280;66746;51.328;12.332;2023-06-26T10:53:12;100046.63;;;31.19;38.08
77590;BME280;66746;51.328;12.332;2023-06-26T10:55:43;100042.81;;;31.27;37.78
77590;BME280;66746;51.328;12.332;2023-06-26T10:58:29;100046.38;;;30.71;35.98
77590;BME280;66746;51.328;12.332;2023-06-26T11:01:18;100039.00;;;30.11;36.56
77590;BME280;66746;51.328;12.332;2023-06-26T11:03:47;100033.97;;;30.21;36.26
77590;BME280;66746;51.328;12.332;2023-06-26T11:06:18;100027.38;;;30.66;38.60
77590;BME280;66746;51.328;12.332;2023-06-26T11:08:45;100031.44;;;30.64;35.03
77590;BME280;66746;51.328;12.332;2023-06-26T11:11:12;100031.53;;;30.70;37.36
77590;BME280;66746;51.328;12.332;2023-06-26T11:13:39;100037.78;;;30.72;34.80
77590;BME280;66746;51.328;12.332;2023-06-26T11:16:06;100014.16;;;30.45;35.23
77590;BME280;66746;51.328;12.332;2023-06-26T11:18:32;100014.06;;;30.53;34.95
77590;BME280;66746;51.328;12.332;2023-06-26T11:21:05;100011.06;;;30.70;36.39
77590;BME280;66746;51.328;12.332;2023-06-26T11:23:34;100011.81;;;30.64;34.79
77590;BME280;66746;51.328;12.332;2023-06-26T11:26:14;100016.13;;;30.22;37.52
77590;BME280;66746;51.328;12.332;2023-06-26T11:28:46;100008.66;;;30.37;36.75
77590;BME280;66746;51.328;12.332;2023-06-26T11:31:24;100011.31;;;30.16;34.72
77590;BME280;66746;51.328;12.332;2023-06-26T11:33:51;100002.38;;;30.35;37.75
77590;BME280;66746;51.328;12.332;2023-06-26T11:36:18;100000.56;;;30.42;38.03
77590;BME280;66746;51.328;12.332;2023-06-26T11:38:45;100001.66;;;30.92;36.04
77590;BME280;66746;51.328;12.332;2023-06-26T11:41:16;99992.81;;;30.59;33.65
77590;BME280;66746;51.328;12.332;2023-06-26T11:43:43;99990.38;;;30.71;34.78
77590;BME280;66746;51.328;12.332;2023-06-26T11:46:10;99986.94;;;30.54;35.77
77590;BME280;66746;51.328;12.332;2023-06-26T11:48:36;99982.94;;;30.78;37.80
77590;BME280;66746;51.328;12.332;2023-06-26T11:51:04;99991.53;;;30.91;35.99
77590;BME280;66746;51.328;12.332;2023-06-26T11:53:30;99984.31;;;30.67;35.41
77590;BME280;66746;51.328;12.332;2023-06-26T11:55:58;99986.88;;;30.98;35.62
77590;BME280;66746;51.328;12.332;2023-06-26T11:58:24;99979.28;;;30.77;34.50
77590;BME280;66746;51.328;12.332;2023-06-26T12:00:51;99979.63;;;30.74;36.24
77590;BME280;66746;51.328;12.332;2023-06-26T12:03:17;99982.66;;;30.87;35.50
77590;BME280;66746;51.328;12.332;2023-06-26T12:05:44;99992.34;;;31.06;34.85
77590;BME280;66746;51.328;12.332;2023-06-26T12:08:11;99980.47;;;31.04;33.96
77590;BME280;66746;51.328;12.332;2023-06-26T12:10:38;99979.94;;;30.65;34.61
77590;BME280;66746;51.328;12.332;2023-06-26T12:13:08;99985.56;;;30.35;35.95
77590;BME280;66746;51.328;12.332;2023-06-26T12:15:35;99981.31;;;30.39;34.84
77590;BME280;66746;51.328;12.332;2023-06-26T12:18:07;99967.97;;;30.71;34.30
77590;BME280;66746;51.328;12.332;2023-06-26T12:20:39;99975.16;;;30.29;35.99
77590;BME280;66746;51.328;12.332;2023-06-26T12:23:11;99974.38;;;30.21;36.67
77590;BME280;66746;51.328;12.332;2023-06-26T12:25:38;99974.44;;;29.98;36.61
77590;BME280;66746;51.328;12.332;2023-06-26T12:28:16;99969.91;;;30.26;35.41
77590;BME280;66746;51.328;12.332;2023-06-26T12:30:46;99955.19;;;30.83;35.00
77590;BME280;66746;51.328;12.332;2023-06-26T12:33:13;99959.28;;;31.37;38.63
77590;BME280;66746;51.328;12.332;2023-06-26T12:35:40;99957.72;;;31.13;33.15
77590;BME280;66746;51.328;12.332;2023-06-26T12:38:08;99953.97;;;31.21;35.56
77590;BME280;66746;51.328;12.332;2023-06-26T12:40:45;99959.69;;;31.34;33.78
77590;BME280;66746;51.328;12.332;2023-06-26T12:43:11;99952.13;;;30.92;33.42